| Ora | Descriere | Temp | Se simte | Precipitatii | Umiditate | Vant |
|---|---|---|---|---|---|---|
| 00:00 | Thundery outbreaks in nearby | 11.8° | 11.9° | 0% | 68% | SW 4.3 KM/H |
| 01:00 | 12° | 11.5° | 0% | 66% | SW 7.2 KM/H | |
| 02:00 | Acoperit de nori | 10.7° | 10.1° | 0% | 70% | SW 6.5 KM/H |
| 03:00 | 10° | 11.5° | 0% | 71% | WSW 6.8 KM/H | |
| 04:00 | 11.5° | 11° | 0% | 66% | WSW 7.2 KM/H | |
| 05:00 | 11.2° | 11.3° | 0% | 67% | WSW 4.7 KM/H | |
| 06:00 | Senin | 11.7° | 11.4° | 0% | 66% | SW 6.1 KM/H |
| 07:00 | Senin | 12° | 12.2° | 0% | 71% | SW 4.7 KM/H |
| 08:00 | Senin | 15.1° | 15.1° | 0% | 66% | SW 4.7 KM/H |
| 09:00 | Thundery outbreaks in nearby | 16.7° | 16.8° | 0% | 61% | SSE 3.2 KM/H |
| 10:00 | Senin | 16.7° | 16.7° | 0% | 63% | SE 4.3 KM/H |
| 11:00 | Senin | 19.7° | 19.7° | 0% | 54% | SE 4.3 KM/H |
| 12:00 | Senin | 21.2° | 21.2° | 0% | 48% | E 6.8 KM/H |
| 13:00 | Senin | 22.2° | 24.2° | 0% | 41% | E 6.5 KM/H |
| 14:00 | Senin | 22.7° | 24.1° | 0% | 38% | E 6.5 KM/H |
| 15:00 | Senin | 22.9° | 24.1° | 0% | 37% | E 7.9 KM/H |
| 16:00 | Senin | 22.8° | 24.2° | 0% | 38% | E 10.8 KM/H |
| 17:00 | Senin | 22.4° | 24.2° | 0% | 41% | ESE 13.7 KM/H |
| 18:00 | Senin | 21.4° | 21.4° | 0% | 51% | SE 15.5 KM/H |
| 19:00 | Senin | 18.9° | 18.9° | 0% | 58% | SSE 14.8 KM/H |
| 20:00 | Senin | 14.8° | 14.4° | 0% | 66% | SSE 10.1 KM/H |
| 21:00 | Senin | 13.2° | 12.4° | 0% | 71% | SSW 10.8 KM/H |
| 22:00 | Senin | 12.3° | 11.5° | 0% | 74% | SW 9.4 KM/H |
| 23:00 | Senin | 11.5° | 10.8° | 0% | 76% | WSW 7.9 KM/H |